Time;durP1;ratioP1;P1;durP2;ratioP2;P2;SDS_P1;SDS_P2;PMS_P1;PMS_P2;Temp;Humidity;BMP_temperature;BMP_pressure;BME280_temperature;BME280_humidity;BME280_pressure;Samples;Min_cycle;Max_cycle;Signal;HPM_P1;HPM_P2
2023/06/24 00:00:06;;;;;;;14.20;12.82;;;;;;;21.32;79.74;94918.19;5115185;28;20203;-71
2023/06/24 00:02:37;;;;;;;14.10;12.60;;;;;;;21.35;80.36;94914.53;5114405;28;20195;-71
2023/06/24 00:05:05;;;;;;;14.63;13.13;;;;;;;21.39;79.86;94915.28;5114002;28;20203;-70
2023/06/24 00:07:35;;;;;;;13.57;12.18;;;;;;;21.43;79.73;94912.44;5115113;28;20187;-71
2023/06/24 00:10:04;;;;;;;13.43;12.18;;;;;;;21.44;80.38;94905.59;5114271;28;20291;-71
2023/06/24 00:12:34;;;;;;;14.15;12.75;;;;;;;21.42;80.39;94906.00;5115090;28;20203;-71
2023/06/24 00:15:01;;;;;;;13.23;11.95;;;;;;;21.43;79.72;94904.00;5117921;28;20208;-71
2023/06/24 00:17:29;;;;;;;14.32;12.88;;;;;;;21.41;79.85;94909.25;5117665;28;20215;-71
2023/06/24 00:19:57;;;;;;;13.98;12.68;;;;;;;21.40;79.89;94908.47;5118241;28;20570;-72
2023/06/24 00:22:25;;;;;;;13.18;11.95;;;;;;;21.35;79.66;94911.72;5117828;28;20206;-71
2023/06/24 00:24:53;;;;;;;14.23;12.88;;;;;;;21.33;80.48;94908.56;5118473;28;20184;-71
2023/06/24 00:27:20;;;;;;;13.88;12.68;;;;;;;21.29;80.31;94907.81;5118153;28;20634;-71
2023/06/24 00:29:52;;;;;;;14.48;13.02;;;;;;;21.26;80.37;94900.25;5118394;28;20187;-71
2023/06/24 00:32:20;;;;;;;14.48;12.90;;;;;;;21.26;80.49;94911.47;5118396;28;20540;-71
2023/06/24 00:34:50;;;;;;;14.85;12.73;;;;;;;21.24;80.65;94916.69;5117012;28;20207;-71
2023/06/24 00:37:18;;;;;;;14.07;12.68;;;;;;;21.21;80.09;94914.78;5117291;28;20208;-71
2023/06/24 00:39:46;;;;;;;13.93;12.48;;;;;;;21.19;80.32;94917.19;5118188;28;20195;-71
2023/06/24 00:42:14;;;;;;;13.73;12.43;;;;;;;21.20;79.91;94913.97;5118540;28;20203;-71
2023/06/24 00:44:42;;;;;;;14.63;13.23;;;;;;;21.20;79.84;94910.34;5118008;28;20231;-71
2023/06/24 00:47:12;;;;;;;14.90;13.40;;;;;;;21.13;79.91;94908.47;5117164;28;20199;-71
2023/06/24 00:49:40;;;;;;;15.90;14.43;;;;;;;21.07;79.99;94907.38;5117616;28;20187;-71
2023/06/24 00:52:10;;;;;;;13.77;12.40;;;;;;;21.05;80.64;94904.97;5117597;28;20596;-71
2023/06/24 00:54:38;;;;;;;13.77;12.40;;;;;;;20.95;80.15;94897.53;5117873;28;20253;-71
2023/06/24 00:57:09;;;;;;;14.00;12.60;;;;;;;20.88;80.27;94892.84;5116584;28;20212;-71
2023/06/24 00:59:39;;;;;;;14.05;12.57;;;;;;;20.86;80.07;94897.28;5116896;28;20219;-71
2023/06/24 01:02:07;;;;;;;13.55;12.40;;;;;;;20.84;80.62;94896.91;5117879;28;20194;-71
2023/06/24 01:04:37;;;;;;;13.77;12.65;;;;;;;20.85;80.62;94892.91;5116714;28;20202;-71
2023/06/24 01:07:06;;;;;;;14.85;13.35;;;;;;;20.85;80.53;94896.50;5116694;28;20188;-71
2023/06/24 01:09:35;;;;;;;14.85;13.35;;;;;;;20.84;80.96;94896.91;5117576;28;20267;-72
2023/06/24 01:12:04;;;;;;;14.57;13.20;;;;;;;20.77;81.04;94889.41;5116607;28;20537;-71
2023/06/24 01:14:32;;;;;;;14.30;12.85;;;;;;;20.73;81.08;94885.06;5115977;28;20204;-71
2023/06/24 01:17:07;;;;;;;14.20;13.00;;;;;;;20.66;80.96;94889.56;5116554;28;20219;-71
2023/06/24 01:19:57;;;;;;;14.13;12.63;;;;;;;20.63;81.02;94887.63;5117372;28;20256;-71
2023/06/24 01:23:07;;;;;;;13.88;12.57;;;;;;;20.64;81.01;94886.38;5116793;28;20208;-71
2023/06/24 01:25:45;;;;;;;14.00;12.63;;;;;;;20.64;81.35;94889.19;5106005;28;20211;-71
2023/06/24 01:28:24;;;;;;;14.20;12.68;;;;;;;20.64;81.39;94889.19;5117263;28;20180;-71
2023/06/24 01:31:06;;;;;;;14.25;12.85;;;;;;;20.64;81.59;94889.19;5116881;28;20549;-71
2023/06/24 01:33:43;;;;;;;14.85;13.40;;;;;;;20.62;81.96;94893.63;5116247;28;20192;-71
2023/06/24 01:36:13;;;;;;;13.95;12.73;;;;;;;20.58;82.38;94912.50;5116928;28;20565;-71
2023/06/24 01:38:44;;;;;;;14.80;13.40;;;;;;;20.62;82.06;94904.81;5116003;28;20227;-71
2023/06/24 01:41:16;;;;;;;13.90;12.73;;;;;;;20.64;81.71;94908.81;5115843;28;20195;-71
2023/06/24 01:43:44;;;;;;;15.88;14.27;;;;;;;20.65;80.95;94918.00;5116832;28;20235;-71
2023/06/24 01:46:13;;;;;;;14.10;12.65;;;;;;;20.65;80.68;94916.00;5116834;28;20214;-71
2023/06/24 01:48:45;;;;;;;14.15;12.85;;;;;;;20.62;80.51;94922.44;5116909;28;20264;-71
2023/06/24 01:51:16;;;;;;;13.77;12.50;;;;;;;20.59;80.68;94926.09;5116869;28;20195;-71
2023/06/24 01:53:50;;;;;;;13.20;11.90;;;;;;;20.63;81.08;94924.03;5116450;28;20191;-71
2023/06/24 01:56:18;;;;;;;13.52;12.25;;;;;;;20.67;80.45;94921.19;5116548;28;20655;-71
2023/06/24 01:58:46;;;;;;;13.80;12.48;;;;;;;20.67;79.91;94915.59;5116484;28;20304;-71
2023/06/24 02:01:15;;;;;;;13.30;12.00;;;;;;;20.65;79.78;94927.19;5116684;28;20188;-71
2023/06/24 02:03:45;;;;;;;13.45;12.25;;;;;;;20.61;79.14;94931.28;5116474;28;20188;-71
2023/06/24 02:06:15;;;;;;;12.88;11.68;;;;;;;20.57;79.33;94936.91;5116581;28;20217;-71
2023/06/24 02:08:44;;;;;;;13.57;12.27;;;;;;;20.55;79.79;94944.97;5115589;28;20199;-71
2023/06/24 02:11:13;;;;;;;12.70;11.43;;;;;;;20.53;79.16;94941.00;5115667;28;20210;-71
2023/06/24 02:13:43;;;;;;;13.35;12.00;;;;;;;20.51;79.07;94941.41;5115425;28;20566;-71
2023/06/24 02:16:11;;;;;;;13.93;12.52;;;;;;;20.51;79.46;94937.81;5116304;28;20198;-71
2023/06/24 02:18:42;;;;;;;13.52;12.25;;;;;;;20.52;79.58;94939.41;5116148;28;20206;-71
2023/06/24 02:21:11;;;;;;;13.40;12.00;;;;;;;20.54;79.35;94934.97;5116243;28;20199;-71
2023/06/24 02:23:39;;;;;;;13.68;12.45;;;;;;;20.55;78.40;94944.16;5115117;28;20207;-71
2023/06/24 02:26:10;;;;;;;14.13;12.82;;;;;;;20.53;78.58;94952.19;5116149;28;20184;-71
2023/06/24 02:28:40;;;;;;;13.25;12.05;;;;;;;20.53;78.11;94960.59;5115331;28;20192;-71
2023/06/24 02:31:10;;;;;;;13.82;12.50;;;;;;;20.54;78.29;94967.78;5115137;28;20231;-71
2023/06/24 02:33:38;;;;;;;13.15;11.95;;;;;;;20.53;78.39;94969.00;5114815;28;20196;-71
2023/06/24 02:36:06;;;;;;;13.15;11.95;;;;;;;20.50;78.88;94975.44;5114359;28;20196;-71
2023/06/24 02:38:36;;;;;;;13.85;12.48;;;;;;;20.51;78.36;94972.22;5115243;28;20219;-71
2023/06/24 02:41:04;;;;;;;13.57;12.30;;;;;;;20.49;78.75;94969.03;5115937;28;20614;-71
2023/06/24 02:43:35;;;;;;;13.15;11.95;;;;;;;20.50;78.88;94973.44;5114496;28;20243;-71
2023/06/24 02:46:04;;;;;;;13.68;12.32;;;;;;;20.51;78.68;94974.22;5114917;28;20196;-71
2023/06/24 02:48:34;;;;;;;13.70;12.30;;;;;;;20.51;78.47;94977.03;5115805;28;20206;-71
2023/06/24 02:51:02;;;;;;;13.55;12.18;;;;;;;20.50;78.28;94972.66;5115857;28;20191;-71
2023/06/24 02:53:29;;;;;;;13.48;12.15;;;;;;;20.53;78.12;94977.41;5115423;28;20191;-71
2023/06/24 02:56:04;;;;;;;12.70;11.63;;;;;;;20.55;78.19;94977.78;5115710;28;20256;-71
2023/06/24 02:58:32;;;;;;;14.15;12.90;;;;;;;20.52;77.98;94985.03;5115799;28;20256;-71
2023/06/24 03:01:00;;;;;;;13.73;12.32;;;;;;;20.54;78.31;94987.41;5115501;28;20196;-72
2023/06/24 03:03:28;;;;;;;13.48;12.13;;;;;;;20.52;78.64;94987.03;5114608;28;20203;-71
2023/06/24 03:05:57;;;;;;;13.85;12.52;;;;;;;20.53;78.66;94985.81;5114374;28;20204;-71
2023/06/24 03:08:26;;;;;;;13.07;11.93;;;;;;;20.44;78.66;94975.88;5114835;28;20229;-70
2023/06/24 03:10:56;;;;;;;15.05;13.32;;;;;;;20.32;78.57;94979.22;5114910;28;20203;-70
2023/06/24 03:13:24;;;;;;;13.50;12.10;;;;;;;20.27;79.38;94978.91;5114821;28;20207;-70
2023/06/24 03:15:52;;;;;;;13.88;12.38;;;;;;;20.29;79.53;94982.06;5115399;28;20203;-71
2023/06/24 03:18:21;;;;;;;14.32;12.95;;;;;;;20.31;80.16;94985.25;5115831;28;20539;-70
2023/06/24 03:20:48;;;;;;;14.55;12.68;;;;;;;20.25;79.67;94987.72;5115546;28;20206;-70
2023/06/24 03:23:15;;;;;;;15.10;12.60;;;;;;;20.21;79.90;94986.97;5114620;28;20196;-70
2023/06/24 03:25:44;;;;;;;14.13;12.82;;;;;;;20.19;80.35;94986.59;5115779;28;20268;-69
2023/06/24 03:28:12;;;;;;;14.57;13.15;;;;;;;20.17;80.42;95003.00;5115401;28;20210;-69
2023/06/24 03:30:41;;;;;;;14.35;12.93;;;;;;;20.16;80.48;95005.00;5114898;28;20207;-70
2023/06/24 03:33:16;;;;;;;13.77;12.45;;;;;;;20.18;80.11;95007.38;5116118;28;20233;-71
2023/06/24 03:35:44;;;;;;;14.32;12.85;;;;;;;20.14;80.48;95012.22;5114881;28;20282;-74
2023/06/24 03:38:12;;;;;;;14.98;12.90;;;;;;;20.14;81.34;95015.03;5116059;28;20222;-70
2023/06/24 03:40:41;;;;;;;13.88;12.55;;;;;;;20.14;81.67;95009.44;5116898;28;20564;-75
2023/06/24 03:43:11;;;;;;;13.50;12.25;;;;;;;20.18;82.26;95016.56;5115963;28;20322;-75
2023/06/24 03:45:41;;;;;;;14.75;13.05;;;;;;;20.23;81.81;95014.56;5115446;28;20196;-75
2023/06/24 03:48:11;;;;;;;14.73;13.13;;;;;;;20.24;81.34;95025.34;5117572;28;20192;-71
2023/06/24 03:50:39;;;;;;;15.07;13.35;;;;;;;20.26;81.76;95028.53;5120072;28;20202;-71
2023/06/24 03:53:12;;;;;;;14.60;13.20;;;;;;;20.30;81.38;95020.06;5119481;28;20207;-71
2023/06/24 03:55:40;;;;;;;15.68;14.00;;;;;;;20.34;80.83;95021.63;5119064;28;20207;-71
2023/06/24 03:58:08;;;;;;;16.13;13.18;;;;;;;20.38;81.35;95015.97;5119434;28;20219;-70
2023/06/24 04:00:36;;;;;;;14.93;13.40;;;;;;;20.44;81.20;95017.09;5120468;28;20236;-71
2023/06/24 04:03:07;;;;;;;15.18;13.77;;;;;;;20.45;81.20;95021.50;5119732;28;20207;-71
2023/06/24 04:05:35;;;;;;;15.70;14.15;;;;;;;20.46;81.55;95022.28;5119980;28;20199;-71
2023/06/24 04:08:05;;;;;;;14.57;13.07;;;;;;;20.44;82.63;95031.09;5120245;28;20202;-72
2023/06/24 04:10:34;;;;;;;13.95;12.75;;;;;;;20.43;82.81;95030.31;5121554;28;20191;-71
2023/06/24 04:13:01;;;;;;;15.35;13.38;;;;;;;20.46;82.43;95027.91;5120088;28;20192;-71
2023/06/24 04:15:30;;;;;;;15.38;13.63;;;;;;;20.49;83.02;95019.44;5119453;28;20188;-72
2023/06/24 04:17:58;;;;;;;15.05;13.52;;;;;;;20.50;82.71;95015.47;5119359;28;20215;-72
2023/06/24 04:20:27;;;;;;;17.17;14.38;;;;;;;20.51;81.93;95014.25;5119861;28;20563;-77
2023/06/24 04:22:56;;;;;;;15.80;14.20;;;;;;;20.56;81.29;95019.41;5118809;28;20215;-71
2023/06/24 04:25:23;;;;;;;16.02;14.43;;;;;;;20.60;81.38;95008.94;5118747;28;20242;-70
2023/06/24 04:27:51;;;;;;;16.75;15.25;;;;;;;20.63;81.36;94998.91;5118298;28;20532;-70
2023/06/24 04:30:19;;;;;;;16.02;14.43;;;;;;;20.66;81.15;94996.06;5117774;28;20511;-71
2023/06/24 04:32:48;;;;;;;15.57;14.07;;;;;;;20.71;80.62;95006.00;5118670;28;20248;-71
2023/06/24 04:35:16;;;;;;;15.35;13.82;;;;;;;20.78;80.22;95007.91;5118986;28;20199;-71
2023/06/24 04:37:50;;;;;;;15.38;13.82;;;;;;;20.83;80.23;95007.44;5117491;28;20245;-71
2023/06/24 04:40:18;;;;;;;16.25;14.65;;;;;;;20.86;80.20;95013.00;5118738;28;20241;-72
2023/06/24 04:42:45;;;;;;;15.50;13.57;;;;;;;20.88;80.69;95009.78;5119095;28;20218;-75
2023/06/24 04:45:12;;;;;;;15.02;13.65;;;;;;;21.56;79.38;95011.59;5118911;28;20191;-72
2023/06/24 04:47:41;;;;;;;14.93;13.52;;;;;;;21.47;77.97;95011.34;5117575;28;20180;-72
2023/06/24 04:50:12;;;;;;;15.30;13.65;;;;;;;21.29;78.75;95017.22;5117720;28;20206;-72
2023/06/24 04:52:40;;;;;;;15.65;14.15;;;;;;;21.18;79.23;95022.97;5118535;28;20184;-71
2023/06/24 04:55:11;;;;;;;14.95;13.60;;;;;;;21.09;79.33;95023.47;5118586;28;20211;-71
2023/06/24 04:57:40;;;;;;;15.90;14.40;;;;;;;21.05;79.31;95025.53;5117040;28;20666;-75
2023/06/24 05:00:12;;;;;;;16.73;15.23;;;;;;;21.03;79.72;95016.78;5116186;28;20222;-71
2023/06/24 05:02:40;;;;;;;19.15;15.93;;;;;;;21.02;79.65;95020.00;5117972;28;20196;-71
2023/06/24 05:05:08;;;;;;;17.35;15.65;;;;;;;21.01;79.95;95027.59;5117466;28;20267;-70
2023/06/24 05:07:37;;;;;;;16.35;14.75;;;;;;;21.01;79.61;95016.41;5116658;28;20191;-70
2023/06/24 05:10:05;;;;;;;16.77;15.15;;;;;;;21.04;79.62;95023.97;5117128;28;20264;-70
2023/06/24 05:12:35;;;;;;;17.02;15.52;;;;;;;21.06;79.40;95017.94;5117760;28;20210;-70
2023/06/24 05:15:05;;;;;;;16.15;14.70;;;;;;;21.10;79.55;95016.69;5117308;28;20203;-70
2023/06/24 05:17:33;;;;;;;16.40;14.95;;;;;;;21.14;78.88;95014.63;5116656;28;20298;-70
2023/06/24 05:20:01;;;;;;;16.63;14.93;;;;;;;21.18;79.03;95013.78;5117091;28;20218;-70
2023/06/24 05:22:29;;;;;;;16.60;15.10;;;;;;;21.22;78.89;95006.88;5116539;28;20596;-70
2023/06/24 05:24:57;;;;;;;17.27;15.63;;;;;;;21.27;78.45;95000.00;5116564;28;20199;-70
2023/06/24 05:27:24;;;;;;;16.80;15.18;;;;;;;21.30;77.78;95005.56;5116283;28;20199;-70
2023/06/24 05:29:54;;;;;;;16.58;14.88;;;;;;;21.31;77.94;95001.53;5116560;28;20207;-70
2023/06/24 05:32:23;;;;;;;16.80;15.10;;;;;;;21.33;77.86;95004.75;5116211;28;20200;-70
2023/06/24 05:34:53;;;;;;;17.23;15.68;;;;;;;21.36;77.63;95011.53;5117161;28;20188;-70
2023/06/24 05:37:20;;;;;;;16.85;15.25;;;;;;;21.36;77.60;95015.13;5117206;28;20210;-70
2023/06/24 05:39:48;;;;;;;16.15;14.55;;;;;;;21.41;77.35;95015.84;5117028;28;20214;-70
2023/06/24 05:42:16;;;;;;;16.33;14.73;;;;;;;21.45;77.06;95011.75;5117072;28;20223;-70
2023/06/24 05:44:44;;;;;;;15.95;14.38;;;;;;;21.50;77.16;95010.50;5115896;28;20338;-70
2023/06/24 05:47:15;;;;;;;17.25;15.68;;;;;;;21.54;76.40;95008.44;5116947;28;20188;-70
2023/06/24 05:49:41;;;;;;;16.08;14.45;;;;;;;21.57;75.97;95008.38;5116798;28;20196;-70
2023/06/24 05:52:10;;;;;;;18.55;16.65;;;;;;;21.62;76.24;95001.47;5116732;28;20192;-70
2023/06/24 05:54:38;;;;;;;18.70;16.95;;;;;;;21.66;75.72;95001.44;5116014;28;20196;-70
2023/06/24 05:57:06;;;;;;;18.88;17.10;;;;;;;21.69;75.84;95004.16;5115578;28;20240;-71
2023/06/24 05:59:34;;;;;;;17.38;15.77;;;;;;;21.71;75.76;95007.31;5116283;28;20204;-71
2023/06/24 06:02:05;;;;;;;18.02;16.33;;;;;;;21.75;75.21;95002.47;5116486;28;20172;-71
2023/06/24 06:04:34;;;;;;;17.65;15.95;;;;;;;21.80;75.25;95001.97;5115879;28;20207;-70
2023/06/24 06:07:01;;;;;;;18.02;16.35;;;;;;;21.82;75.45;94987.50;5115751;28;20188;-70
2023/06/24 06:09:28;;;;;;;17.73;16.02;;;;;;;21.84;75.54;94987.88;5115358;28;20184;-70
2023/06/24 06:11:56;;;;;;;17.00;15.32;;;;;;;21.89;75.54;94987.38;5115761;28;20199;-70
2023/06/24 06:14:24;;;;;;;17.92;16.15;;;;;;;21.93;75.34;94993.72;5116149;28;20186;-70
2023/06/24 06:16:51;;;;;;;17.02;15.48;;;;;;;21.96;75.18;94998.47;5116087;28;20199;-70
2023/06/24 06:19:18;;;;;;;16.50;14.88;;;;;;;21.98;74.60;94990.44;5115411;28;20220;-70
2023/06/24 06:21:50;;;;;;;16.83;15.32;;;;;;;22.01;73.78;94992.38;5115973;28;20661;-71
2023/06/24 06:24:18;;;;;;;17.13;15.35;;;;;;;22.04;73.87;94985.91;5115259;28;20200;-70
2023/06/24 06:26:45;;;;;;;19.23;17.00;;;;;;;22.08;73.82;94992.25;5115298;28;20268;-71
2023/06/24 06:29:12;;;;;;;17.77;15.98;;;;;;;22.11;73.94;94999.00;5097967;28;20229;-70
2023/06/24 06:31:40;;;;;;;17.05;15.40;;;;;;;22.13;73.84;95002.19;5115129;28;20207;-70
2023/06/24 06:34:07;;;;;;;17.60;16.00;;;;;;;22.15;72.75;95002.59;5115467;28;20207;-70
2023/06/24 06:36:35;;;;;;;18.55;16.40;;;;;;;22.18;73.01;94993.28;5115196;28;20207;-70
2023/06/24 06:39:08;;;;;;;18.13;16.30;;;;;;;22.23;73.77;95003.25;5114991;28;20220;-70
2023/06/24 06:41:37;;;;;;;18.08;16.38;;;;;;;22.24;74.36;95005.63;5114929;28;20195;-71
2023/06/24 06:44:05;;;;;;;17.60;15.90;;;;;;;22.28;73.26;95011.16;5114772;28;20235;-71
2023/06/24 06:46:34;;;;;;;17.58;15.98;;;;;;;22.29;73.15;95001.50;5098450;28;20199;-70
2023/06/24 06:49:01;;;;;;;18.13;16.42;;;;;;;22.31;73.44;95001.88;5114739;28;20222;-70
2023/06/24 06:51:28;;;;;;;17.80;16.20;;;;;;;22.37;74.23;94999.34;5114912;28;20192;-70
2023/06/24 06:53:56;;;;;;;18.67;16.75;;;;;;;22.41;73.72;95005.72;5115557;28;20552;-70
2023/06/24 06:56:26;;;;;;;18.35;16.63;;;;;;;22.43;73.12;95006.06;5115888;28;20172;-70
2023/06/24 06:58:52;;;;;;;18.83;17.00;;;;;;;22.45;73.20;95004.41;5115652;28;20217;-70
2023/06/24 07:01:20;;;;;;;21.83;18.48;;;;;;;22.47;73.13;95001.16;5115611;28;20206;-71
2023/06/24 07:03:52;;;;;;;18.92;17.13;;;;;;;22.49;73.19;94995.91;5114685;28;20212;-70
2023/06/24 07:06:20;;;;;;;19.42;17.63;;;;;;;22.51;72.63;94999.88;5114655;28;20248;-70
2023/06/24 07:08:50;;;;;;;18.75;17.05;;;;;;;22.56;71.91;95002.19;5115679;28;20241;-70
2023/06/24 07:11:18;;;;;;;17.90;16.10;;;;;;;22.62;72.21;95010.88;5114418;28;20200;-71
2023/06/24 07:13:50;;;;;;;18.02;16.33;;;;;;;22.64;72.29;95002.03;5114705;28;20198;-71
2023/06/24 07:16:18;;;;;;;17.92;16.23;;;;;;;22.68;72.08;95002.75;5115519;28;20191;-70
2023/06/24 07:18:46;;;;;;;19.00;17.20;;;;;;;22.77;71.74;95002.97;5115209;28;20191;-70
2023/06/24 07:21:14;;;;;;;17.90;16.17;;;;;;;22.80;71.52;95007.72;5114656;28;20188;-70
2023/06/24 07:23:43;;;;;;;18.02;16.33;;;;;;;22.82;71.89;95010.88;5118441;28;20199;-70
2023/06/24 07:26:11;;;;;;;19.27;17.48;;;;;;;22.81;71.58;95010.09;5118819;28;20213;-70
2023/06/24 07:28:39;;;;;;;17.60;15.80;;;;;;;22.85;71.60;95007.22;5119740;28;20188;-70
2023/06/24 07:31:08;;;;;;;18.65;16.85;;;;;;;22.90;70.99;94994.66;5118914;28;20203;-70
2023/06/24 07:33:37;;;;;;;18.70;16.92;;;;;;;22.93;71.13;95000.22;5118236;28;20210;-70
2023/06/24 07:36:05;;;;;;;18.30;16.42;;;;;;;22.95;70.90;94997.78;5118616;28;20203;-70
2023/06/24 07:38:33;;;;;;;17.20;15.20;;;;;;;23.00;70.91;94996.47;5119604;28;20184;-70
2023/06/24 07:41:01;;;;;;;17.15;15.40;;;;;;;23.06;70.83;94997.56;5119416;28;20200;-70
2023/06/24 07:43:29;;;;;;;16.40;14.95;;;;;;;23.12;69.63;94992.97;5118138;28;20235;-70
2023/06/24 07:45:57;;;;;;;16.33;14.68;;;;;;;23.13;68.94;94986.16;5118412;28;20192;-70
2023/06/24 07:48:27;;;;;;;15.88;14.48;;;;;;;23.18;70.15;94996.88;5118057;28;20215;-70
2023/06/24 07:50:55;;;;;;;16.27;14.65;;;;;;;23.22;67.44;95006.00;5118460;28;20207;-70
2023/06/24 07:53:22;;;;;;;15.65;14.23;;;;;;;23.28;67.38;94998.66;5118460;28;20199;-70
2023/06/24 07:55:50;;;;;;;15.93;14.32;;;;;;;23.28;67.01;95001.47;5118241;28;20200;-71
2023/06/24 07:58:19;;;;;;;16.50;15.00;;;;;;;23.30;66.78;95001.00;5118311;28;20191;-70
2023/06/24 08:00:45;;;;;;;16.35;14.75;;;;;;;23.34;67.30;95007.34;5118639;28;20554;-70
2023/06/24 08:03:14;;;;;;;16.17;14.52;;;;;;;23.49;67.21;95007.81;5119056;28;20188;-70
2023/06/24 08:05:42;;;;;;;16.65;15.02;;;;;;;23.53;67.27;95011.34;5117923;28;20242;-70
2023/06/24 08:08:10;;;;;;;17.45;15.90;;;;;;;23.55;68.01;95004.03;5118722;28;20245;-70
2023/06/24 08:10:38;;;;;;;16.55;15.05;;;;;;;23.62;66.79;95003.06;5118963;28;20491;-70
2023/06/24 08:13:07;;;;;;;16.77;15.07;;;;;;;23.68;66.49;94998.53;5117984;28;20211;-70
2023/06/24 08:15:35;;;;;;;16.30;14.90;;;;;;;23.72;65.50;94999.22;5117555;28;20191;-70
2023/06/24 08:18:06;;;;;;;27.48;18.98;;;;;;;23.72;65.94;94996.41;5117909;28;20199;-70
2023/06/24 08:20:33;;;;;;;30.08;19.50;;;;;;;23.77;68.13;95000.72;5117540;28;20297;-70
2023/06/24 08:23:04;;;;;;;21.00;16.58;;;;;;;23.94;68.80;94996.66;5117479;28;20192;-70
2023/06/24 08:25:31;;;;;;;22.25;17.80;;;;;;;23.96;67.48;94993.41;5117663;28;20202;-70
2023/06/24 08:27:58;;;;;;;29.52;19.48;;;;;;;23.97;66.73;94983.72;5118367;27;20534;-70
2023/06/24 08:30:27;;;;;;;17.17;15.48;;;;;;;24.11;66.86;94982.53;5117714;28;20196;-70
2023/06/24 08:32:56;;;;;;;18.33;16.05;;;;;;;24.19;67.66;94986.78;5117504;28;20192;-71
2023/06/24 08:35:23;;;;;;;17.52;15.93;;;;;;;24.27;66.00;94990.97;5118311;28;20175;-70
2023/06/24 08:37:50;;;;;;;18.98;15.70;;;;;;;24.42;68.29;94985.75;5117289;28;20203;-71
2023/06/24 08:40:20;;;;;;;21.92;17.73;;;;;;;24.55;68.55;94985.78;5117203;28;20212;-70
2023/06/24 08:42:48;;;;;;;17.80;16.30;;;;;;;24.65;68.21;94979.84;5117334;28;20200;-70
2023/06/24 08:45:15;;;;;;;17.52;15.73;;;;;;;24.70;66.12;94981.34;5117862;28;20200;-71
2023/06/24 08:47:46;;;;;;;17.15;15.43;;;;;;;24.73;67.32;94969.97;5117072;28;20203;-70
2023/06/24 08:50:14;;;;;;;24.88;17.83;;;;;;;24.80;69.33;94970.97;5118046;27;20194;-70
2023/06/24 08:52:46;;;;;;;20.52;18.35;;;;;;;24.84;68.97;94963.22;5117314;28;20191;-70
2023/06/24 08:55:14;;;;;;;38.10;23.23;;;;;;;24.91;68.40;94969.44;5117229;28;20192;-70
2023/06/24 08:57:47;;;;;;;26.38;19.50;;;;;;;25.07;69.35;94979.84;5117223;28;20203;-70
2023/06/24 09:00:16;;;;;;;30.17;20.45;;;;;;;25.14;65.72;94976.81;5118282;28;20199;-70
2023/06/24 09:02:45;;;;;;;20.02;18.13;;;;;;;25.20;68.27;94975.03;5117589;28;20203;-70
2023/06/24 09:05:11;;;;;;;19.20;17.20;;;;;;;25.34;69.08;94975.81;5117483;28;20202;-70
2023/06/24 09:07:39;;;;;;;19.25;17.38;;;;;;;25.47;65.75;94962.47;5116882;28;20195;-70
2023/06/24 09:10:08;;;;;;;18.58;16.33;;;;;;;25.64;65.04;94963.94;5116741;28;20204;-70
2023/06/24 09:12:36;;;;;;;17.27;15.65;;;;;;;25.79;65.14;94964.28;5117049;28;20212;-70
2023/06/24 09:15:07;;;;;;;16.58;14.88;;;;;;;25.88;64.31;94963.56;5116425;28;20199;-70
2023/06/24 09:17:46;;;;;;;17.30;15.60;;;;;;;25.96;63.78;94967.72;5116360;28;20188;-70
2023/06/24 09:20:14;;;;;;;16.63;15.23;;;;;;;26.05;62.81;94969.88;5117458;28;20207;-70
2023/06/24 09:22:42;;;;;;;16.77;15.32;;;;;;;26.15;62.18;94971.53;5116298;28;20650;-70
2023/06/24 09:25:10;;;;;;;16.73;15.13;;;;;;;26.16;60.70;94964.63;5117518;28;20252;-70
2023/06/24 09:27:39;;;;;;;17.60;16.10;;;;;;;26.25;65.51;94964.69;5116525;28;20199;-70
2023/06/24 09:30:20;;;;;;;16.83;15.23;;;;;;;26.34;62.71;94964.78;5117495;28;20180;-70
2023/06/24 09:32:49;;;;;;;16.80;15.15;;;;;;;26.49;61.87;94964.31;5115651;28;20220;-70
2023/06/24 09:35:19;;;;;;;15.48;14.13;;;;;;;26.59;61.06;94965.97;5116449;28;20365;-70
2023/06/24 09:37:51;;;;;;;15.90;14.40;;;;;;;26.68;60.17;94965.22;5115978;28;20298;-70
2023/06/24 09:40:19;;;;;;;16.40;14.73;;;;;;;26.79;60.11;94966.41;5115880;28;20226;-70
2023/06/24 09:42:51;;;;;;;16.08;14.57;;;;;;;26.83;58.46;94961.41;5116396;28;20192;-70
2023/06/24 09:45:23;;;;;;;16.10;14.68;;;;;;;26.97;60.56;94968.56;5095232;28;20254;-70
2023/06/24 09:47:50;;;;;;;15.75;14.25;;;;;;;27.07;60.84;94964.53;5096277;28;20502;-70
2023/06/24 09:50:19;;;;;;;15.35;14.02;;;;;;;27.13;58.85;94966.81;5095594;28;20204;-70
2023/06/24 09:52:47;;;;;;;14.85;13.50;;;;;;;27.26;57.31;94956.16;5095447;28;20246;-71
2023/06/24 09:55:17;;;;;;;16.08;14.52;;;;;;;27.39;60.97;94958.91;5096177;28;20587;-70
2023/06/24 09:57:46;;;;;;;16.38;14.90;;;;;;;27.49;59.21;94954.81;5095423;28;20193;-70
2023/06/24 10:00:16;;;;;;;15.15;13.70;;;;;;;27.53;56.25;94952.66;5095956;28;20589;-70
2023/06/24 10:02:46;;;;;;;17.85;15.45;;;;;;;27.55;58.56;94938.81;5095175;28;20200;-70
2023/06/24 10:05:15;;;;;;;15.38;13.90;;;;;;;27.59;55.83;94936.63;5095480;28;20204;-70
2023/06/24 10:07:43;;;;;;;15.18;13.68;;;;;;;27.69;57.09;94931.78;5095437;28;20196;-70
2023/06/24 10:10:10;;;;;;;14.63;13.23;;;;;;;27.77;55.29;94933.06;5095382;28;20200;-70
2023/06/24 10:12:38;;;;;;;14.95;13.55;;;;;;;27.81;55.96;94928.03;5095941;28;20181;-70
2023/06/24 10:15:07;;;;;;;15.65;14.05;;;;;;;27.89;55.45;94922.84;5095173;28;20199;-70
2023/06/24 10:17:35;;;;;;;16.10;13.88;;;;;;;27.92;53.41;94924.75;5094842;28;20210;-70
2023/06/24 10:20:07;;;;;;;14.52;13.20;;;;;;;28.01;55.88;94911.38;5095529;28;20249;-70
2023/06/24 10:22:36;;;;;;;14.93;13.40;;;;;;;28.12;54.09;94913.75;5095425;28;20223;-70
2023/06/24 10:25:08;;;;;;;14.18;13.05;;;;;;;28.17;54.92;94898.94;5095991;28;20196;-70
2023/06/24 10:27:42;;;;;;;16.23;14.50;;;;;;;28.28;57.20;94898.47;5095791;28;20250;-70
2023/06/24 10:30:18;;;;;;;14.90;13.40;;;;;;;28.39;57.51;94898.03;5094901;28;20230;-70
2023/06/24 10:32:53;;;;;;;14.25;12.85;;;;;;;28.42;52.27;94902.75;5095817;28;20265;-70
2023/06/24 10:35:26;;;;;;;14.52;13.07;;;;;;;28.49;52.67;94894.72;5094864;28;20234;-70
2023/06/24 10:37:59;;;;;;;16.23;14.63;;;;;;;28.53;56.48;94886.03;5096169;28;20188;-70
2023/06/24 10:40:45;;;;;;;15.27;13.82;;;;;;;28.68;55.15;94881.28;5094956;28;20215;-70
2023/06/24 10:43:29;;;;;;;14.68;13.38;;;;;;;28.70;52.94;94878.75;5097803;28;20239;-70
2023/06/24 10:45:57;;;;;;;15.63;14.02;;;;;;;28.75;56.76;94865.97;5114350;28;20608;-70
2023/06/24 10:48:26;;;;;;;14.77;13.35;;;;;;;28.82;53.76;94864.84;5115089;28;20192;-70
2023/06/24 10:50:55;;;;;;;13.80;12.52;;;;;;;28.87;53.60;94861.34;5115131;28;20200;-70
2023/06/24 10:53:23;;;;;;;14.93;13.32;;;;;;;28.86;50.34;94857.72;5115544;28;20646;-70
2023/06/24 10:55:51;;;;;;;13.68;12.38;;;;;;;28.85;51.92;94859.00;5115936;28;20184;-70
2023/06/24 10:58:19;;;;;;;14.30;12.85;;;;;;;29.04;53.80;94854.06;5113844;28;20214;-71
2023/06/24 11:00:49;;;;;;;13.80;12.48;;;;;;;29.12;50.43;94848.84;5115835;28;20212;-70
2023/06/24 11:03:19;;;;;;;12.93;11.57;;;;;;;29.11;51.19;94847.28;5115207;28;20200;-70
2023/06/24 11:05:47;;;;;;;14.30;12.95;;;;;;;29.11;49.97;94852.94;5114868;28;20204;-70
2023/06/24 11:08:15;;;;;;;12.07;10.88;;;;;;;29.14;48.80;94854.84;5114938;28;20199;-70
2023/06/24 11:10:48;;;;;;;12.82;11.48;;;;;;;29.19;50.80;94863.47;5114738;28;20199;-70
2023/06/24 11:13:16;;;;;;;12.35;11.15;;;;;;;29.21;48.71;94855.25;5114921;28;20698;-70
2023/06/24 11:15:46;;;;;;;12.20;11.10;;;;;;;29.03;49.22;94852.50;5115656;28;20252;-70
2023/06/24 11:18:14;;;;;;;13.45;12.18;;;;;;;29.07;52.14;94855.97;5115744;28;20180;-70
2023/06/24 11:20:43;;;;;;;12.40;11.20;;;;;;;29.24;50.22;94860.00;5114790;28;20226;-71
2023/06/24 11:23:11;;;;;;;11.57;10.48;;;;;;;29.35;49.74;94844.47;5114465;28;20196;-71
2023/06/24 11:25:44;;;;;;;11.38;10.38;;;;;;;29.38;48.92;94855.66;5115632;28;20191;-70